Terminal Aerodrome Forecast
Issued by NWS Mt. Holly, NJ

Home | Current Version | Previous Version | Text Only | Print | Product List | Glossary On
Versions: 1 2 3 4 5 6 7 8 9 10 11 12 13 14 15 16 17 18 19 20 21 22 23
000
FTUS41 KPHI 021100
TAFPHL
TAF
KPHL 021120Z 0212/0318 04008KT P6SM BKN018 OVC027
     FM021400 03010KT P6SM BKN030
     FM021600 04009KT P6SM SCT030 BKN035
     FM022200 07006KT P6SM BKN040
     FM030100 06004KT P6SM SCT045
     FM031000 VRB04KT 6SM BR FEW005 SCT015
     FM031300 14007KT P6SM SCT025=

USA.gov is the U.S. government's official web portal to all federal, state and local government web resources and services.